Hamilton, OH (45011)

10:35 PM EDT on August 29, 2015 (GMT -0400)
APRSWXNET | | Change Station
CLOSE
Current Station
Personal Weather Station
Location: Hamilton, OH
Elevation: 587 ft
Nearby Weather Stations

Elev 587 ft 39.41 °N, 84.49 °W | Updated 22 minutes ago

Overcast
Overcast
77 °F
Feels Like 79 °F
N
1
Wind Variable Wind from East
Gusts 6.0 mph

Today
High -- | Low -- °F
--% Chance of Precip.
Yesterday
High -- | Low -- °F
Precip. -- in
7:03 AM 8:13 PM
Full, 100% visible
Pressure 30.06 in
Visibility 10.0 miles
Clouds Few 4700 ft
Heat Index 79 °F
Dew Point 68 °F
Humidity 73%
Rainfall in
Snow Depth Not available.
UV 0 out of 12
Pollen 10.20 out of 12
Air Quality Not available.
Flu Activity Not available.
METAR KHAO 300153Z AUTO 00000KT 10SM FEW047 22/20 A3008 RMK AO2 SLP180 T02220200
Pressure 30.06 in
Visibility 10.0 miles
Clouds Few 4700 ft
Heat Index 79 °F
Dew Point 68 °F
Humidity 73%
Rainfall in
Snow Depth Not available.
UV 0 out of 12
Pollen 10.20 out of 12
Air Quality Not available.
Flu Activity Not available.
METAR KHAO 300153Z AUTO 00000KT 10SM FEW047 22/20 A3008 RMK AO2 SLP180 T02220200

10-Day Weather Forecast

×

Almanac

Astronomy

Aug. 29, 2015 Rise Set
Actual Time
Civil Twilight
Nautical Twilight
Astronomical Twilight
Moon
Length of Visible Light
Length of Day
Tomorrow will be .
, % of the Moon is Illuminated

Today's Extremes

State Highs State Lows

Community

WunderPhotos

Upload Photos

1,850,852 photos uploaded!

WunderBlogs® & News

Nearby

Air Quality

  Air Quality AQ Index Pollutant
Not available.

Snow Depth

Station Depth Elevation

Earthquake Activity

City Distance Mag. Time & Date
Minimum magnitude displayed is 2.5.

Coastal Water Temperatures

Place Temperature

Stations

Nearby Weather Stations

Station Location Temp. Windchill Dew Point Humidity Wind Precip. Elev Updated Type